sensor_id;sensor_type;location;lat;lon;timestamp;P1;durP1;ratioP1;P2;durP2;ratioP2
4409;SDS011;2218;51.408;7.208;2022-07-30T00:00:07;1.47;;;1.37;;
4409;SDS011;2218;51.408;7.208;2022-07-30T00:02:36;2.70;;;1.73;;
4409;SDS011;2218;51.408;7.208;2022-07-30T00:05:04;1.40;;;1.30;;
4409;SDS011;2218;51.408;7.208;2022-07-30T00:07:32;1.53;;;1.43;;
4409;SDS011;2218;51.408;7.208;2022-07-30T00:09:59;1.20;;;1.10;;
4409;SDS011;2218;51.408;7.208;2022-07-30T00:12:26;1.67;;;1.50;;
4409;SDS011;2218;51.408;7.208;2022-07-30T00:14:53;1.20;;;1.10;;
4409;SDS011;2218;51.408;7.208;2022-07-30T00:17:20;1.30;;;1.20;;
4409;SDS011;2218;51.408;7.208;2022-07-30T00:19:47;1.50;;;1.40;;
4409;SDS011;2218;51.408;7.208;2022-07-30T00:22:16;1.60;;;1.50;;
4409;SDS011;2218;51.408;7.208;2022-07-30T00:24:42;1.37;;;1.27;;
4409;SDS011;2218;51.408;7.208;2022-07-30T00:27:09;1.27;;;1.17;;
4409;SDS011;2218;51.408;7.208;2022-07-30T00:29:39;1.40;;;1.30;;
4409;SDS011;2218;51.408;7.208;2022-07-30T00:32:06;1.43;;;1.33;;
4409;SDS011;2218;51.408;7.208;2022-07-30T00:34:33;1.80;;;1.70;;
4409;SDS011;2218;51.408;7.208;2022-07-30T00:37:00;1.70;;;1.60;;
4409;SDS011;2218;51.408;7.208;2022-07-30T00:39:28;1.40;;;1.30;;
4409;SDS011;2218;51.408;7.208;2022-07-30T00:41:56;1.37;;;1.27;;
4409;SDS011;2218;51.408;7.208;2022-07-30T00:44:26;1.40;;;1.30;;
4409;SDS011;2218;51.408;7.208;2022-07-30T00:46:54;1.43;;;1.33;;
4409;SDS011;2218;51.408;7.208;2022-07-30T00:49:21;1.50;;;1.40;;
4409;SDS011;2218;51.408;7.208;2022-07-30T00:51:49;1.83;;;1.50;;
4409;SDS011;2218;51.408;7.208;2022-07-30T00:54:17;1.50;;;1.40;;
4409;SDS011;2218;51.408;7.208;2022-07-30T00:56:46;1.40;;;1.30;;
4409;SDS011;2218;51.408;7.208;2022-07-30T00:59:13;1.20;;;1.10;;
4409;SDS011;2218;51.408;7.208;2022-07-30T01:01:41;1.83;;;1.50;;
4409;SDS011;2218;51.408;7.208;2022-07-30T01:04:09;2.10;;;1.43;;
4409;SDS011;2218;51.408;7.208;2022-07-30T01:06:36;1.60;;;1.50;;
4409;SDS011;2218;51.408;7.208;2022-07-30T01:09:04;1.60;;;1.50;;
4409;SDS011;2218;51.408;7.208;2022-07-30T01:11:33;1.07;;;0.97;;
4409;SDS011;2218;51.408;7.208;2022-07-30T01:14:04;1.67;;;1.57;;
4409;SDS011;2218;51.408;7.208;2022-07-30T01:16:33;1.60;;;1.50;;
4409;SDS011;2218;51.408;7.208;2022-07-30T01:19:04;1.40;;;1.30;;
4409;SDS011;2218;51.408;7.208;2022-07-30T01:21:59;1.67;;;1.40;;
4409;SDS011;2218;51.408;7.208;2022-07-30T01:24:35;1.57;;;1.47;;
4409;SDS011;2218;51.408;7.208;2022-07-30T01:27:09;1.40;;;1.30;;
4409;SDS011;2218;51.408;7.208;2022-07-30T01:29:39;1.80;;;1.60;;
4409;SDS011;2218;51.408;7.208;2022-07-30T01:32:10;1.43;;;1.33;;
4409;SDS011;2218;51.408;7.208;2022-07-30T01:34:41;1.50;;;1.40;;
4409;SDS011;2218;51.408;7.208;2022-07-30T01:37:11;1.50;;;1.40;;
4409;SDS011;2218;51.408;7.208;2022-07-30T01:39:41;1.30;;;1.20;;
4409;SDS011;2218;51.408;7.208;2022-07-30T01:42:11;1.20;;;1.10;;
4409;SDS011;2218;51.408;7.208;2022-07-30T01:44:40;1.70;;;1.60;;
4409;SDS011;2218;51.408;7.208;2022-07-30T01:47:09;1.40;;;1.30;;
4409;SDS011;2218;51.408;7.208;2022-07-30T01:49:42;1.40;;;1.30;;
4409;SDS011;2218;51.408;7.208;2022-07-30T01:52:12;2.10;;;1.43;;
4409;SDS011;2218;51.408;7.208;2022-07-30T01:54:43;1.50;;;1.40;;
4409;SDS011;2218;51.408;7.208;2022-07-30T01:57:15;1.60;;;1.40;;
4409;SDS011;2218;51.408;7.208;2022-07-30T01:59:46;1.47;;;1.37;;
4409;SDS011;2218;51.408;7.208;2022-07-30T02:02:18;1.70;;;1.60;;
4409;SDS011;2218;51.408;7.208;2022-07-30T02:04:45;1.57;;;1.47;;
4409;SDS011;2218;51.408;7.208;2022-07-30T02:07:15;1.40;;;1.30;;
4409;SDS011;2218;51.408;7.208;2022-07-30T02:09:50;1.57;;;1.47;;
4409;SDS011;2218;51.408;7.208;2022-07-30T02:12:24;1.60;;;1.50;;
4409;SDS011;2218;51.408;7.208;2022-07-30T02:14:59;1.27;;;1.17;;
4409;SDS011;2218;51.408;7.208;2022-07-30T02:17:40;1.57;;;1.47;;
4409;SDS011;2218;51.408;7.208;2022-07-30T02:20:15;1.43;;;1.33;;
4409;SDS011;2218;51.408;7.208;2022-07-30T02:22:44;1.40;;;1.30;;
4409;SDS011;2218;51.408;7.208;2022-07-30T02:25:14;2.07;;;1.50;;
4409;SDS011;2218;51.408;7.208;2022-07-30T02:27:49;1.93;;;1.83;;
4409;SDS011;2218;51.408;7.208;2022-07-30T02:30:24;1.50;;;1.40;;
4409;SDS011;2218;51.408;7.208;2022-07-30T02:32:57;1.43;;;1.33;;
4409;SDS011;2218;51.408;7.208;2022-07-30T02:35:31;1.40;;;1.30;;
4409;SDS011;2218;51.408;7.208;2022-07-30T02:38:00;1.40;;;1.30;;
4409;SDS011;2218;51.408;7.208;2022-07-30T02:40:30;1.60;;;1.50;;
4409;SDS011;2218;51.408;7.208;2022-07-30T02:43:00;1.33;;;1.13;;
4409;SDS011;2218;51.408;7.208;2022-07-30T02:45:28;1.40;;;1.30;;
4409;SDS011;2218;51.408;7.208;2022-07-30T02:47:57;1.80;;;1.67;;
4409;SDS011;2218;51.408;7.208;2022-07-30T02:50:30;1.23;;;1.13;;
4409;SDS011;2218;51.408;7.208;2022-07-30T02:52:59;1.70;;;1.60;;
4409;SDS011;2218;51.408;7.208;2022-07-30T02:55:31;1.37;;;1.27;;
4409;SDS011;2218;51.408;7.208;2022-07-30T02:58:02;1.50;;;1.40;;
4409;SDS011;2218;51.408;7.208;2022-07-30T03:00:31;1.40;;;1.17;;
4409;SDS011;2218;51.408;7.208;2022-07-30T03:03:01;1.40;;;1.30;;
4409;SDS011;2218;51.408;7.208;2022-07-30T03:05:31;1.17;;;1.07;;
4409;SDS011;2218;51.408;7.208;2022-07-30T03:07:59;1.40;;;1.30;;
4409;SDS011;2218;51.408;7.208;2022-07-30T03:10:28;2.17;;;1.77;;
4409;SDS011;2218;51.408;7.208;2022-07-30T03:12:57;1.37;;;1.27;;
4409;SDS011;2218;51.408;7.208;2022-07-30T03:15:27;1.37;;;1.27;;
4409;SDS011;2218;51.408;7.208;2022-07-30T03:17:58;1.47;;;1.33;;
4409;SDS011;2218;51.408;7.208;2022-07-30T03:20:29;1.60;;;1.50;;
4409;SDS011;2218;51.408;7.208;2022-07-30T03:22:59;1.50;;;1.40;;
4409;SDS011;2218;51.408;7.208;2022-07-30T03:25:29;1.40;;;1.30;;
4409;SDS011;2218;51.408;7.208;2022-07-30T03:28:00;1.50;;;1.40;;
4409;SDS011;2218;51.408;7.208;2022-07-30T03:30:30;1.10;;;1.00;;
4409;SDS011;2218;51.408;7.208;2022-07-30T03:32:59;1.60;;;1.50;;
4409;SDS011;2218;51.408;7.208;2022-07-30T03:35:28;1.47;;;1.37;;
4409;SDS011;2218;51.408;7.208;2022-07-30T03:37:56;1.80;;;1.70;;
4409;SDS011;2218;51.408;7.208;2022-07-30T03:40:24;1.50;;;1.40;;
4409;SDS011;2218;51.408;7.208;2022-07-30T03:42:53;1.40;;;1.30;;
4409;SDS011;2218;51.408;7.208;2022-07-30T03:45:23;1.57;;;1.47;;
4409;SDS011;2218;51.408;7.208;2022-07-30T03:47:56;1.40;;;1.30;;
4409;SDS011;2218;51.408;7.208;2022-07-30T03:50:25;1.40;;;1.10;;
4409;SDS011;2218;51.408;7.208;2022-07-30T03:52:54;1.43;;;1.33;;
4409;SDS011;2218;51.408;7.208;2022-07-30T03:55:23;1.50;;;1.40;;
4409;SDS011;2218;51.408;7.208;2022-07-30T03:58:19;1.40;;;1.30;;
4409;SDS011;2218;51.408;7.208;2022-07-30T04:00:46;1.40;;;1.30;;
4409;SDS011;2218;51.408;7.208;2022-07-30T04:03:24;1.40;;;1.30;;
4409;SDS011;2218;51.408;7.208;2022-07-30T04:05:54;1.37;;;1.27;;
4409;SDS011;2218;51.408;7.208;2022-07-30T04:08:21;1.20;;;1.10;;
4409;SDS011;2218;51.408;7.208;2022-07-30T04:10:48;1.40;;;1.30;;
4409;SDS011;2218;51.408;7.208;2022-07-30T04:13:35;1.50;;;1.40;;
4409;SDS011;2218;51.408;7.208;2022-07-30T04:16:04;1.47;;;1.37;;
4409;SDS011;2218;51.408;7.208;2022-07-30T04:18:41;1.40;;;1.30;;
4409;SDS011;2218;51.408;7.208;2022-07-30T04:21:14;1.47;;;1.37;;
4409;SDS011;2218;51.408;7.208;2022-07-30T04:23:44;1.40;;;1.30;;
4409;SDS011;2218;51.408;7.208;2022-07-30T04:26:15;1.60;;;1.47;;
4409;SDS011;2218;51.408;7.208;2022-07-30T04:28:44;1.60;;;1.50;;
4409;SDS011;2218;51.408;7.208;2022-07-30T04:31:11;1.50;;;1.40;;
4409;SDS011;2218;51.408;7.208;2022-07-30T04:33:41;1.50;;;1.40;;
4409;SDS011;2218;51.408;7.208;2022-07-30T04:36:27;1.50;;;1.40;;
4409;SDS011;2218;51.408;7.208;2022-07-30T04:38:54;2.20;;;1.30;;
4409;SDS011;2218;51.408;7.208;2022-07-30T04:41:21;1.60;;;1.50;;
4409;SDS011;2218;51.408;7.208;2022-07-30T04:44:08;1.50;;;1.40;;
4409;SDS011;2218;51.408;7.208;2022-07-30T04:46:42;1.07;;;0.97;;
4409;SDS011;2218;51.408;7.208;2022-07-30T04:49:11;1.40;;;1.30;;
4409;SDS011;2218;51.408;7.208;2022-07-30T04:51:42;1.20;;;1.10;;
4409;SDS011;2218;51.408;7.208;2022-07-30T04:54:12;1.47;;;1.37;;
4409;SDS011;2218;51.408;7.208;2022-07-30T04:56:41;1.50;;;1.40;;
4409;SDS011;2218;51.408;7.208;2022-07-30T04:59:11;1.50;;;1.40;;
4409;SDS011;2218;51.408;7.208;2022-07-30T05:01:39;1.37;;;1.27;;
4409;SDS011;2218;51.408;7.208;2022-07-30T05:04:11;1.53;;;1.43;;
4409;SDS011;2218;51.408;7.208;2022-07-30T05:06:42;1.27;;;1.17;;
4409;SDS011;2218;51.408;7.208;2022-07-30T05:09:11;1.40;;;1.30;;
4409;SDS011;2218;51.408;7.208;2022-07-30T05:11:40;1.50;;;1.40;;
4409;SDS011;2218;51.408;7.208;2022-07-30T05:14:07;1.30;;;1.20;;
4409;SDS011;2218;51.408;7.208;2022-07-30T05:16:34;1.20;;;1.10;;
4409;SDS011;2218;51.408;7.208;2022-07-30T05:19:01;1.50;;;1.40;;
4409;SDS011;2218;51.408;7.208;2022-07-30T05:21:30;3.47;;;1.30;;
4409;SDS011;2218;51.408;7.208;2022-07-30T05:23:57;1.57;;;1.47;;
4409;SDS011;2218;51.408;7.208;2022-07-30T05:26:32;1.50;;;1.40;;
4409;SDS011;2218;51.408;7.208;2022-07-30T05:28:59;1.37;;;1.27;;
4409;SDS011;2218;51.408;7.208;2022-07-30T05:31:40;1.10;;;1.00;;
4409;SDS011;2218;51.408;7.208;2022-07-30T05:34:08;1.30;;;1.20;;
4409;SDS011;2218;51.408;7.208;2022-07-30T05:36:44;1.40;;;1.30;;
4409;SDS011;2218;51.408;7.208;2022-07-30T05:39:14;1.30;;;1.20;;
4409;SDS011;2218;51.408;7.208;2022-07-30T05:41:50;1.43;;;1.33;;
4409;SDS011;2218;51.408;7.208;2022-07-30T05:44:27;1.33;;;1.23;;
4409;SDS011;2218;51.408;7.208;2022-07-30T05:46:53;1.40;;;1.30;;
4409;SDS011;2218;51.408;7.208;2022-07-30T05:49:21;1.43;;;1.33;;
4409;SDS011;2218;51.408;7.208;2022-07-30T05:51:51;1.23;;;1.20;;
4409;SDS011;2218;51.408;7.208;2022-07-30T05:54:18;1.30;;;1.20;;
4409;SDS011;2218;51.408;7.208;2022-07-30T05:57:22;2.23;;;1.47;;
4409;SDS011;2218;51.408;7.208;2022-07-30T05:59:50;1.30;;;1.20;;
4409;SDS011;2218;51.408;7.208;2022-07-30T06:02:30;1.30;;;1.20;;
4409;SDS011;2218;51.408;7.208;2022-07-30T06:05:11;1.30;;;1.20;;
4409;SDS011;2218;51.408;7.208;2022-07-30T06:07:40;1.23;;;1.13;;
4409;SDS011;2218;51.408;7.208;2022-07-30T06:10:07;1.30;;;1.20;;
4409;SDS011;2218;51.408;7.208;2022-07-30T06:12:35;1.20;;;1.10;;
4409;SDS011;2218;51.408;7.208;2022-07-30T06:15:02;1.40;;;1.30;;
4409;SDS011;2218;51.408;7.208;2022-07-30T06:17:39;1.50;;;1.40;;
4409;SDS011;2218;51.408;7.208;2022-07-30T06:20:16;1.40;;;1.30;;
4409;SDS011;2218;51.408;7.208;2022-07-30T06:23:06;1.50;;;1.40;;
4409;SDS011;2218;51.408;7.208;2022-07-30T06:26:04;1.43;;;1.33;;
4409;SDS011;2218;51.408;7.208;2022-07-30T06:28:32;1.40;;;1.30;;
4409;SDS011;2218;51.408;7.208;2022-07-30T06:30:59;1.10;;;1.03;;
4409;SDS011;2218;51.408;7.208;2022-07-30T06:33:27;1.33;;;1.23;;
4409;SDS011;2218;51.408;7.208;2022-07-30T06:35:54;1.40;;;1.30;;
4409;SDS011;2218;51.408;7.208;2022-07-30T06:38:26;1.60;;;1.50;;
4409;SDS011;2218;51.408;7.208;2022-07-30T06:40:59;1.50;;;1.40;;
4409;SDS011;2218;51.408;7.208;2022-07-30T06:43:40;1.50;;;1.40;;
4409;SDS011;2218;51.408;7.208;2022-07-30T06:46:31;1.63;;;1.53;;
4409;SDS011;2218;51.408;7.208;2022-07-30T06:48:58;1.40;;;1.17;;
4409;SDS011;2218;51.408;7.208;2022-07-30T06:51:25;1.60;;;1.50;;
4409;SDS011;2218;51.408;7.208;2022-07-30T06:53:53;1.30;;;1.20;;
4409;SDS011;2218;51.408;7.208;2022-07-30T06:56:32;1.40;;;1.30;;
4409;SDS011;2218;51.408;7.208;2022-07-30T06:59:03;1.57;;;1.47;;
4409;SDS011;2218;51.408;7.208;2022-07-30T07:01:48;1.40;;;1.30;;
4409;SDS011;2218;51.408;7.208;2022-07-30T07:04:18;1.57;;;1.47;;
4409;SDS011;2218;51.408;7.208;2022-07-30T07:06:45;1.60;;;1.50;;
4409;SDS011;2218;51.408;7.208;2022-07-30T07:09:19;1.30;;;1.20;;
4409;SDS011;2218;51.408;7.208;2022-07-30T07:11:56;1.60;;;1.50;;
4409;SDS011;2218;51.408;7.208;2022-07-30T07:14:23;1.37;;;1.27;;
4409;SDS011;2218;51.408;7.208;2022-07-30T07:16:50;1.27;;;1.17;;
4409;SDS011;2218;51.408;7.208;2022-07-30T07:19:38;1.37;;;1.27;;
4409;SDS011;2218;51.408;7.208;2022-07-30T07:22:05;1.73;;;1.63;;
4409;SDS011;2218;51.408;7.208;2022-07-30T07:24:33;1.50;;;1.40;;
4409;SDS011;2218;51.408;7.208;2022-07-30T07:27:10;1.67;;;1.20;;
4409;SDS011;2218;51.408;7.208;2022-07-30T07:29:38;1.60;;;1.50;;
4409;SDS011;2218;51.408;7.208;2022-07-30T07:32:06;1.90;;;1.80;;
4409;SDS011;2218;51.408;7.208;2022-07-30T07:34:35;1.50;;;1.40;;
4409;SDS011;2218;51.408;7.208;2022-07-30T07:37:02;1.53;;;1.43;;
4409;SDS011;2218;51.408;7.208;2022-07-30T07:39:29;1.43;;;1.33;;
4409;SDS011;2218;51.408;7.208;2022-07-30T07:41:57;1.80;;;1.70;;
4409;SDS011;2218;51.408;7.208;2022-07-30T07:44:27;1.73;;;1.63;;
4409;SDS011;2218;51.408;7.208;2022-07-30T07:46:54;1.83;;;1.73;;
4409;SDS011;2218;51.408;7.208;2022-07-30T07:49:24;1.63;;;1.50;;
4409;SDS011;2218;51.408;7.208;2022-07-30T07:51:51;1.67;;;1.57;;
4409;SDS011;2218;51.408;7.208;2022-07-30T07:54:19;1.70;;;1.60;;
4409;SDS011;2218;51.408;7.208;2022-07-30T07:56:47;1.73;;;1.63;;
4409;SDS011;2218;51.408;7.208;2022-07-30T07:59:17;1.77;;;1.67;;
4409;SDS011;2218;51.408;7.208;2022-07-30T08:01:44;1.80;;;1.70;;
4409;SDS011;2218;51.408;7.208;2022-07-30T08:04:20;1.83;;;1.73;;
4409;SDS011;2218;51.408;7.208;2022-07-30T08:07:06;1.60;;;1.50;;
4409;SDS011;2218;51.408;7.208;2022-07-30T08:09:56;1.83;;;1.73;;
4409;SDS011;2218;51.408;7.208;2022-07-30T08:12:32;1.67;;;1.57;;
4409;SDS011;2218;51.408;7.208;2022-07-30T08:15:26;2.00;;;1.90;;
4409;SDS011;2218;51.408;7.208;2022-07-30T08:18:17;1.60;;;1.50;;
4409;SDS011;2218;51.408;7.208;2022-07-30T08:20:51;2.00;;;1.90;;
4409;SDS011;2218;51.408;7.208;2022-07-30T08:23:23;1.80;;;1.70;;
4409;SDS011;2218;51.408;7.208;2022-07-30T08:25:50;2.33;;;2.20;;
4409;SDS011;2218;51.408;7.208;2022-07-30T08:28:17;2.20;;;2.07;;
4409;SDS011;2218;51.408;7.208;2022-07-30T08:30:46;2.03;;;1.93;;
4409;SDS011;2218;51.408;7.208;2022-07-30T08:33:14;2.10;;;2.00;;
4409;SDS011;2218;51.408;7.208;2022-07-30T08:35:41;2.27;;;2.17;;
4409;SDS011;2218;51.408;7.208;2022-07-30T08:38:09;2.17;;;2.07;;
4409;SDS011;2218;51.408;7.208;2022-07-30T08:40:37;2.77;;;2.57;;
4409;SDS011;2218;51.408;7.208;2022-07-30T08:43:05;2.87;;;2.67;;
4409;SDS011;2218;51.408;7.208;2022-07-30T08:45:34;2.60;;;2.40;;
4409;SDS011;2218;51.408;7.208;2022-07-30T08:48:15;2.57;;;2.37;;
4409;SDS011;2218;51.408;7.208;2022-07-30T08:50:48;2.30;;;2.10;;
4409;SDS011;2218;51.408;7.208;2022-07-30T08:53:35;3.17;;;2.87;;
4409;SDS011;2218;51.408;7.208;2022-07-30T08:56:02;2.80;;;2.33;;
4409;SDS011;2218;51.408;7.208;2022-07-30T08:58:31;2.77;;;2.57;;
4409;SDS011;2218;51.408;7.208;2022-07-30T09:01:00;3.27;;;2.97;;
4409;SDS011;2218;51.408;7.208;2022-07-30T09:03:30;2.93;;;2.73;;
4409;SDS011;2218;51.408;7.208;2022-07-30T09:05:59;3.30;;;3.10;;
4409;SDS011;2218;51.408;7.208;2022-07-30T09:08:28;4.00;;;3.60;;
4409;SDS011;2218;51.408;7.208;2022-07-30T09:10:55;3.67;;;3.37;;
4409;SDS011;2218;51.408;7.208;2022-07-30T09:13:23;3.00;;;2.70;;
4409;SDS011;2218;51.408;7.208;2022-07-30T09:15:54;3.30;;;3.00;;
4409;SDS011;2218;51.408;7.208;2022-07-30T09:18:26;3.40;;;3.20;;
4409;SDS011;2218;51.408;7.208;2022-07-30T09:21:00;3.40;;;3.10;;
4409;SDS011;2218;51.408;7.208;2022-07-30T09:23:55;3.13;;;2.90;;
4409;SDS011;2218;51.408;7.208;2022-07-30T09:26:51;4.00;;;3.60;;
4409;SDS011;2218;51.408;7.208;2022-07-30T09:29:55;3.20;;;3.00;;
4409;SDS011;2218;51.408;7.208;2022-07-30T09:32:46;3.90;;;3.50;;
4409;SDS011;2218;51.408;7.208;2022-07-30T09:35:35;3.20;;;3.00;;
4409;SDS011;2218;51.408;7.208;2022-07-30T09:38:09;4.20;;;3.80;;
4409;SDS011;2218;51.408;7.208;2022-07-30T09:40:56;4.07;;;3.67;;
4409;SDS011;2218;51.408;7.208;2022-07-30T09:43:47;4.40;;;4.10;;
4409;SDS011;2218;51.408;7.208;2022-07-30T09:46:40;3.27;;;3.07;;
4409;SDS011;2218;51.408;7.208;2022-07-30T09:49:13;3.23;;;3.00;;
4409;SDS011;2218;51.408;7.208;2022-07-30T09:51:43;4.07;;;3.77;;
4409;SDS011;2218;51.408;7.208;2022-07-30T09:54:10;4.40;;;4.00;;
4409;SDS011;2218;51.408;7.208;2022-07-30T09:56:37;3.63;;;3.37;;
4409;SDS011;2218;51.408;7.208;2022-07-30T09:59:05;4.10;;;3.70;;
4409;SDS011;2218;51.408;7.208;2022-07-30T10:04:43;4.37;;;3.97;;
4409;SDS011;2218;51.408;7.208;2022-07-30T10:07:19;3.87;;;3.57;;
4409;SDS011;2218;51.408;7.208;2022-07-30T10:09:48;4.23;;;3.93;;
4409;SDS011;2218;51.408;7.208;2022-07-30T10:12:16;3.70;;;3.40;;
4409;SDS011;2218;51.408;7.208;2022-07-30T10:14:48;3.90;;;3.60;;
4409;SDS011;2218;51.408;7.208;2022-07-30T10:17:19;3.87;;;3.57;;
4409;SDS011;2218;51.408;7.208;2022-07-30T10:20:07;3.73;;;3.43;;
4409;SDS011;2218;51.408;7.208;2022-07-30T10:23:06;3.40;;;3.10;;
4409;SDS011;2218;51.408;7.208;2022-07-30T10:25:34;4.23;;;3.93;;
4409;SDS011;2218;51.408;7.208;2022-07-30T10:28:21;3.63;;;3.43;;
4409;SDS011;2218;51.408;7.208;2022-07-30T10:30:50;4.53;;;4.13;;
4409;SDS011;2218;51.408;7.208;2022-07-30T10:33:18;3.73;;;3.40;;
4409;SDS011;2218;51.408;7.208;2022-07-30T10:35:48;3.90;;;3.60;;
4409;SDS011;2218;51.408;7.208;2022-07-30T10:38:17;3.97;;;3.67;;
4409;SDS011;2218;51.408;7.208;2022-07-30T10:40:49;4.30;;;3.90;;
4409;SDS011;2218;51.408;7.208;2022-07-30T10:43:40;3.90;;;3.60;;
4409;SDS011;2218;51.408;7.208;2022-07-30T10:46:33;4.50;;;3.60;;
4409;SDS011;2218;51.408;7.208;2022-07-30T10:49:16;4.40;;;4.00;;
4409;SDS011;2218;51.408;7.208;2022-07-30T10:51:44;4.23;;;3.87;;
4409;SDS011;2218;51.408;7.208;2022-07-30T10:57:07;3.97;;;3.60;;
4409;SDS011;2218;51.408;7.208;2022-07-30T11:02:38;4.43;;;4.03;;
4409;SDS011;2218;51.408;7.208;2022-07-30T11:05:25;4.17;;;3.77;;
4409;SDS011;2218;51.408;7.208;2022-07-30T11:07:52;4.03;;;3.70;;
4409;SDS011;2218;51.408;7.208;2022-07-30T11:10:33;4.03;;;3.70;;
4409;SDS011;2218;51.408;7.208;2022-07-30T11:13:03;3.50;;;3.17;;
4409;SDS011;2218;51.408;7.208;2022-07-30T11:15:53;4.23;;;3.93;;
4409;SDS011;2218;51.408;7.208;2022-07-30T11:18:24;4.20;;;3.80;;
4409;SDS011;2218;51.408;7.208;2022-07-30T11:23:41;4.43;;;4.13;;
4409;SDS011;2218;51.408;7.208;2022-07-30T11:26:11;4.60;;;3.47;;
4409;SDS011;2218;51.408;7.208;2022-07-30T11:29:37;4.03;;;3.63;;
4409;SDS011;2218;51.408;7.208;2022-07-30T11:32:25;4.00;;;3.70;;
4409;SDS011;2218;51.408;7.208;2022-07-30T11:37:54;4.57;;;4.17;;
4409;SDS011;2218;51.408;7.208;2022-07-30T11:40:23;4.00;;;3.70;;
4409;SDS011;2218;51.408;7.208;2022-07-30T11:43:13;4.20;;;3.80;;
4409;SDS011;2218;51.408;7.208;2022-07-30T11:45:47;3.57;;;3.30;;
4409;SDS011;2218;51.408;7.208;2022-07-30T11:48:16;4.43;;;3.53;;
4409;SDS011;2218;51.408;7.208;2022-07-30T11:50:45;3.50;;;3.20;;
4409;SDS011;2218;51.408;7.208;2022-07-30T11:53:14;4.03;;;3.70;;
4409;SDS011;2218;51.408;7.208;2022-07-30T11:55:45;4.00;;;3.63;;
4409;SDS011;2218;51.408;7.208;2022-07-30T11:58:26;3.30;;;3.00;;
4409;SDS011;2218;51.408;7.208;2022-07-30T12:00:57;3.53;;;3.33;;
4409;SDS011;2218;51.408;7.208;2022-07-30T12:03:28;3.87;;;3.57;;
4409;SDS011;2218;51.408;7.208;2022-07-30T12:06:01;3.50;;;3.20;;
4409;SDS011;2218;51.408;7.208;2022-07-30T12:08:37;3.77;;;3.57;;
4409;SDS011;2218;51.408;7.208;2022-07-30T12:11:05;4.03;;;3.73;;
4409;SDS011;2218;51.408;7.208;2022-07-30T12:13:34;4.43;;;4.03;;
4409;SDS011;2218;51.408;7.208;2022-07-30T12:16:05;3.83;;;3.53;;
4409;SDS011;2218;51.408;7.208;2022-07-30T12:18:34;3.30;;;3.10;;
4409;SDS011;2218;51.408;7.208;2022-07-30T12:21:01;3.60;;;3.30;;
4409;SDS011;2218;51.408;7.208;2022-07-30T12:23:32;4.23;;;3.83;;
4409;SDS011;2218;51.408;7.208;2022-07-30T12:26:00;3.73;;;3.40;;
4409;SDS011;2218;51.408;7.208;2022-07-30T12:28:28;4.70;;;4.27;;
4409;SDS011;2218;51.408;7.208;2022-07-30T12:30:59;4.20;;;3.40;;
4409;SDS011;2218;51.408;7.208;2022-07-30T12:33:28;3.80;;;3.50;;
4409;SDS011;2218;51.408;7.208;2022-07-30T12:35:57;3.87;;;3.50;;
4409;SDS011;2218;51.408;7.208;2022-07-30T12:38:26;3.37;;;3.17;;
4409;SDS011;2218;51.408;7.208;2022-07-30T12:40:55;3.37;;;3.17;;
4409;SDS011;2218;51.408;7.208;2022-07-30T12:43:44;3.30;;;3.10;;
4409;SDS011;2218;51.408;7.208;2022-07-30T12:46:16;3.67;;;3.37;;
4409;SDS011;2218;51.408;7.208;2022-07-30T12:48:49;3.40;;;3.13;;
4409;SDS011;2218;51.408;7.208;2022-07-30T12:51:18;3.50;;;3.23;;
4409;SDS011;2218;51.408;7.208;2022-07-30T12:53:46;4.07;;;3.77;;
4409;SDS011;2218;51.408;7.208;2022-07-30T12:56:14;2.90;;;2.70;;
4409;SDS011;2218;51.408;7.208;2022-07-30T12:58:44;3.30;;;3.10;;
4409;SDS011;2218;51.408;7.208;2022-07-30T13:01:11;3.23;;;3.03;;
4409;SDS011;2218;51.408;7.208;2022-07-30T13:03:40;3.50;;;3.20;;
4409;SDS011;2218;51.408;7.208;2022-07-30T13:06:15;3.67;;;3.37;;
4409;SDS011;2218;51.408;7.208;2022-07-30T13:08:48;3.60;;;3.30;;
4409;SDS011;2218;51.408;7.208;2022-07-30T13:11:20;3.10;;;2.90;;
4409;SDS011;2218;51.408;7.208;2022-07-30T13:13:50;3.50;;;3.20;;
4409;SDS011;2218;51.408;7.208;2022-07-30T13:16:19;3.60;;;3.30;;
4409;SDS011;2218;51.408;7.208;2022-07-30T13:18:47;3.20;;;3.00;;
4409;SDS011;2218;51.408;7.208;2022-07-30T13:21:14;3.60;;;3.30;;
4409;SDS011;2218;51.408;7.208;2022-07-30T13:23:41;3.60;;;3.30;;
4409;SDS011;2218;51.408;7.208;2022-07-30T13:26:08;3.10;;;2.90;;
4409;SDS011;2218;51.408;7.208;2022-07-30T13:28:36;3.07;;;2.77;;
4409;SDS011;2218;51.408;7.208;2022-07-30T13:31:04;2.80;;;2.60;;
4409;SDS011;2218;51.408;7.208;2022-07-30T13:33:31;3.50;;;3.20;;
4409;SDS011;2218;51.408;7.208;2022-07-30T13:36:00;3.10;;;2.90;;
4409;SDS011;2218;51.408;7.208;2022-07-30T13:38:27;3.33;;;3.10;;
4409;SDS011;2218;51.408;7.208;2022-07-30T13:40:54;3.23;;;3.03;;
4409;SDS011;2218;51.408;7.208;2022-07-30T13:43:22;3.00;;;2.80;;
4409;SDS011;2218;51.408;7.208;2022-07-30T13:45:49;2.80;;;2.60;;
4409;SDS011;2218;51.408;7.208;2022-07-30T13:48:17;3.77;;;3.47;;
4409;SDS011;2218;51.408;7.208;2022-07-30T13:50:45;3.87;;;3.57;;
4409;SDS011;2218;51.408;7.208;2022-07-30T13:53:13;3.90;;;3.47;;
4409;SDS011;2218;51.408;7.208;2022-07-30T13:55:40;3.50;;;3.20;;
4409;SDS011;2218;51.408;7.208;2022-07-30T13:58:07;3.00;;;2.80;;
4409;SDS011;2218;51.408;7.208;2022-07-30T14:00:35;3.10;;;2.90;;
4409;SDS011;2218;51.408;7.208;2022-07-30T14:03:04;3.60;;;3.23;;
4409;SDS011;2218;51.408;7.208;2022-07-30T14:05:33;3.13;;;2.93;;
4409;SDS011;2218;51.408;7.208;2022-07-30T14:08:01;3.77;;;3.57;;
4409;SDS011;2218;51.408;7.208;2022-07-30T14:10:31;3.10;;;2.90;;
4409;SDS011;2218;51.408;7.208;2022-07-30T14:12:58;3.50;;;3.20;;
4409;SDS011;2218;51.408;7.208;2022-07-30T14:15:27;3.47;;;3.07;;
4409;SDS011;2218;51.408;7.208;2022-07-30T14:17:55;3.07;;;2.87;;
4409;SDS011;2218;51.408;7.208;2022-07-30T14:20:24;2.90;;;2.70;;
4409;SDS011;2218;51.408;7.208;2022-07-30T14:22:51;2.93;;;2.70;;
4409;SDS011;2218;51.408;7.208;2022-07-30T14:25:19;3.27;;;2.97;;
4409;SDS011;2218;51.408;7.208;2022-07-30T14:27:48;3.07;;;2.87;;
4409;SDS011;2218;51.408;7.208;2022-07-30T14:30:15;3.20;;;3.00;;
4409;SDS011;2218;51.408;7.208;2022-07-30T14:32:42;2.80;;;2.60;;
4409;SDS011;2218;51.408;7.208;2022-07-30T14:35:10;2.90;;;2.70;;
4409;SDS011;2218;51.408;7.208;2022-07-30T14:37:37;2.50;;;2.40;;
4409;SDS011;2218;51.408;7.208;2022-07-30T14:40:05;2.53;;;2.33;;
4409;SDS011;2218;51.408;7.208;2022-07-30T14:42:35;3.00;;;2.80;;
4409;SDS011;2218;51.408;7.208;2022-07-30T14:45:06;2.37;;;2.17;;
4409;SDS011;2218;51.408;7.208;2022-07-30T14:47:35;2.63;;;2.43;;
4409;SDS011;2218;51.408;7.208;2022-07-30T14:50:02;2.40;;;2.20;;
4409;SDS011;2218;51.408;7.208;2022-07-30T14:52:30;3.20;;;2.90;;
4409;SDS011;2218;51.408;7.208;2022-07-30T14:54:59;2.57;;;2.37;;
4409;SDS011;2218;51.408;7.208;2022-07-30T14:57:26;2.70;;;2.50;;
4409;SDS011;2218;51.408;7.208;2022-07-30T14:59:53;2.83;;;2.63;;
4409;SDS011;2218;51.408;7.208;2022-07-30T15:02:21;2.43;;;2.23;;
4409;SDS011;2218;51.408;7.208;2022-07-30T15:04:48;3.40;;;3.10;;
4409;SDS011;2218;51.408;7.208;2022-07-30T15:07:16;3.07;;;2.87;;
4409;SDS011;2218;51.408;7.208;2022-07-30T15:09:43;3.17;;;2.90;;
4409;SDS011;2218;51.408;7.208;2022-07-30T15:12:10;2.73;;;2.53;;
4409;SDS011;2218;51.408;7.208;2022-07-30T15:14:37;2.83;;;2.63;;
4409;SDS011;2218;51.408;7.208;2022-07-30T15:17:05;2.33;;;2.23;;
4409;SDS011;2218;51.408;7.208;2022-07-30T15:19:34;2.70;;;2.50;;
4409;SDS011;2218;51.408;7.208;2022-07-30T15:22:01;3.37;;;3.07;;
4409;SDS011;2218;51.408;7.208;2022-07-30T15:24:29;2.77;;;2.57;;
4409;SDS011;2218;51.408;7.208;2022-07-30T15:26:57;2.57;;;2.37;;
4409;SDS011;2218;51.408;7.208;2022-07-30T15:29:24;2.60;;;2.40;;
4409;SDS011;2218;51.408;7.208;2022-07-30T15:31:54;2.53;;;2.33;;
4409;SDS011;2218;51.408;7.208;2022-07-30T15:34:21;2.33;;;2.23;;
4409;SDS011;2218;51.408;7.208;2022-07-30T15:36:49;2.50;;;2.30;;
4409;SDS011;2218;51.408;7.208;2022-07-30T15:39:16;2.87;;;2.67;;
4409;SDS011;2218;51.408;7.208;2022-07-30T15:41:43;2.23;;;2.13;;
4409;SDS011;2218;51.408;7.208;2022-07-30T15:44:10;2.73;;;2.57;;
4409;SDS011;2218;51.408;7.208;2022-07-30T15:46:38;2.40;;;2.30;;
4409;SDS011;2218;51.408;7.208;2022-07-30T15:49:05;1.97;;;1.87;;
4409;SDS011;2218;51.408;7.208;2022-07-30T15:51:32;2.10;;;2.00;;
4409;SDS011;2218;51.408;7.208;2022-07-30T15:54:01;2.90;;;2.70;;
4409;SDS011;2218;51.408;7.208;2022-07-30T15:56:28;2.70;;;2.43;;